Ashby, Minnesota
Current Conditions -  °F | °C
As of 11:34 AM on Monday 24 Nov 2014 (Local Time) from KFFM Reporting Station
Light Snow Light Snow  
Wind Chill: -13°   Ceiling: 2200
Heat Index:   Visibility: 4mi
Dew Point:   Wind: 25mph
Humidity: 73%   Direction: 340°NNW
Pressure: 29.71"   Gusts: 38mph
Location:  46.09°N, 95.82°W
Report Text: KFFM 241734Z AUTO 34022G33KT 4SM -SN SCT015 OVC022 M13/M17 A2971 RMK AO2
Loading
Personal Weather Stations






























Interactive Weather Map New forecast layout! Learn more

10-Day Weather Forecast

Advertisements
Track Severe Weather on mobile